createdAt,value
2023-04-09T00:02:57.256Z,96288.53
2023-04-09T00:07:59.727Z,96280.78
2023-04-09T00:13:02.874Z,96272.38
2023-04-09T00:18:05.651Z,96269.19
2023-04-09T00:23:08.040Z,96273.31
2023-04-09T00:28:10.319Z,96264.34
2023-04-09T00:33:13.979Z,96260.09
2023-04-09T00:38:20.018Z,96253.16
2023-04-09T00:43:22.398Z,96259.38
2023-04-09T00:48:25.113Z,96254.78
2023-04-09T00:53:27.909Z,96251.56
2023-04-09T00:58:30.650Z,96250.16
2023-04-09T01:03:33.189Z,96252.38
2023-04-09T01:08:35.710Z,96240.47
2023-04-09T01:13:38.076Z,96252.69
2023-04-09T01:18:40.693Z,96244.63
2023-04-09T01:23:43.955Z,96248.09
2023-04-09T01:28:47.011Z,96248.56
2023-04-09T01:33:59.287Z,96245.09
2023-04-09T01:39:02.358Z,96249.25
2023-04-09T01:44:05.049Z,96246.59
2023-04-09T01:49:07.529Z,96253.09
2023-04-09T01:54:09.860Z,96255.91
2023-04-09T01:59:12.408Z,96252.38
2023-04-09T02:04:14.877Z,96252.38
2023-04-09T02:09:17.230Z,96263.47
2023-04-09T02:14:19.619Z,96255.84
2023-04-09T02:19:32.506Z,96255.19
2023-04-09T02:24:36.483Z,96250.91
2023-04-09T02:29:38.830Z,96246.63
2023-04-09T02:34:42.499Z,96247.69
2023-04-09T02:39:44.815Z,96240.47
2023-04-09T02:44:47.198Z,96247.44
2023-04-09T02:49:49.838Z,96250.75
2023-04-09T02:54:53.885Z,96237.88
2023-04-09T02:59:56.175Z,96231.97
2023-04-09T03:04:59.301Z,96234.31
2023-04-09T03:10:01.658Z,96231.09
2023-04-09T03:15:04.546Z,96228.03
2023-04-09T03:20:06.899Z,96222.94
2023-04-09T03:25:10.141Z,96225.50
2023-04-09T03:30:14.186Z,96239.84
2023-04-09T03:35:16.608Z,96237.09
2023-04-09T03:40:19.683Z,96249.56
2023-04-09T03:45:21.978Z,96255.50
2023-04-09T03:50:24.313Z,96253.75
2023-04-09T03:55:27.128Z,96266.13
2023-04-09T04:00:30.287Z,96270.47
2023-04-09T04:05:33.646Z,96274.38
2023-04-09T04:10:37.406Z,96278.88
2023-04-09T04:15:40.158Z,96285.03
2023-04-09T04:20:44.044Z,96276.84
2023-04-09T04:25:47.237Z,96281.53
2023-04-09T04:30:49.833Z,96282.75
2023-04-09T04:35:52.163Z,96287.81
2023-04-09T04:41:00.689Z,96285.50
2023-04-09T04:46:06.155Z,96283.78
2023-04-09T04:51:09.359Z,96275.50
2023-04-09T04:56:19.095Z,96264.56
2023-04-09T05:01:22.346Z,96258.59
2023-04-09T05:06:24.824Z,96277.91
2023-04-09T05:11:28.020Z,96275.44
2023-04-09T05:16:32.104Z,96293.94
2023-04-09T05:21:35.246Z,96298.31
2023-04-09T05:26:37.631Z,96302.47
2023-04-09T05:31:40.671Z,96310.00
2023-04-09T05:36:44.641Z,96315.31
2023-04-09T05:41:47.742Z,96325.69
2023-04-09T05:46:50.120Z,96319.13
2023-04-09T05:52:02.412Z,96300.28
2023-04-09T05:57:05.146Z,96284.94
2023-04-09T06:02:08.474Z,96273.03
2023-04-09T06:07:10.908Z,96268.69
2023-04-09T06:12:13.228Z,96264.81
2023-04-09T06:17:15.539Z,96283.22
2023-04-09T06:22:18.685Z,96294.59
2023-04-09T06:27:22.070Z,96296.44
2023-04-09T06:32:24.497Z,96301.03
2023-04-09T06:37:26.833Z,96305.53
2023-04-09T06:42:29.989Z,96294.22
2023-04-09T06:47:32.511Z,96296.03
2023-04-09T06:52:35.447Z,96293.72
2023-04-09T06:57:38.451Z,96296.88
2023-04-09T07:02:41.190Z,96300.41
2023-04-09T07:07:43.955Z,96301.38
2023-04-09T07:12:47.130Z,96309.28
2023-04-09T07:17:49.501Z,96304.06
2023-04-09T07:22:52.216Z,96303.19
2023-04-09T07:27:55.727Z,96302.81
2023-04-09T07:32:58.615Z,96310.19
2023-04-09T07:38:00.991Z,96305.75
2023-04-09T07:43:03.354Z,96305.50
2023-04-09T07:48:06.058Z,96296.00
2023-04-09T07:53:08.432Z,96299.94
2023-04-09T07:58:11.801Z,96306.06
2023-04-09T08:03:14.404Z,96305.34
2023-04-09T08:08:16.974Z,96294.66
2023-04-09T08:13:25.349Z,96295.97
2023-04-09T08:18:27.685Z,96307.28
2023-04-09T08:23:29.951Z,96305.50
2023-04-09T08:28:32.373Z,96307.66
2023-04-09T08:33:34.686Z,96313.63
2023-04-09T08:38:37.012Z,96312.56
2023-04-09T08:43:56.233Z,96311.09
2023-04-09T08:49:01.274Z,96322.47
2023-04-09T08:54:05.177Z,96317.81
2023-04-09T08:59:07.706Z,96333.50
2023-04-09T09:04:10.591Z,96334.72
2023-04-09T09:09:21.365Z,96325.63
2023-04-09T09:14:23.655Z,96322.38
2023-04-09T09:19:26.019Z,96313.28
2023-04-09T09:24:29.123Z,96321.78
2023-04-09T09:29:31.781Z,96325.31
2023-04-09T09:34:35.945Z,96320.59
2023-04-09T09:39:38.257Z,96319.97
2023-04-09T09:44:43.155Z,96317.88
2023-04-09T09:49:46.350Z,96318.31
2023-04-09T09:54:49.755Z,96322.44
2023-04-09T09:59:52.069Z,96326.22
2023-04-09T10:04:55.054Z,96326.84
2023-04-09T10:09:57.460Z,96320.78
2023-04-09T10:15:04.421Z,96318.44
2023-04-09T10:20:07.932Z,96325.25
2023-04-09T10:25:10.260Z,96321.13
2023-04-09T10:30:13.472Z,96320.38
2023-04-09T10:35:16.948Z,96319.16
2023-04-09T10:40:19.220Z,96316.63
2023-04-09T10:45:22.654Z,96324.03
2023-04-09T10:50:30.827Z,96320.50
2023-04-09T10:55:33.126Z,96320.06
2023-04-09T11:00:39.784Z,96318.53
2023-04-09T11:05:42.066Z,96316.81
2023-04-09T11:10:45.081Z,96303.63
2023-04-09T11:15:50.575Z,96304.56
2023-04-09T11:20:53.239Z,96301.66
2023-04-09T11:25:56.220Z,96296.31
2023-04-09T11:30:59.490Z,96298.69
2023-04-09T11:36:02.549Z,96308.25
2023-04-09T11:41:05.787Z,96306.50
2023-04-09T11:46:08.143Z,96308.16
2023-04-09T11:51:11.273Z,96309.72
2023-04-09T11:56:14.362Z,96314.97
2023-04-09T12:01:17.434Z,96322.16
2023-04-09T12:06:19.721Z,96322.41
2023-04-09T12:11:23.313Z,96322.16
2023-04-09T12:16:25.665Z,96322.91
2023-04-09T12:21:28.819Z,96314.84
2023-04-09T12:26:31.441Z,96320.59
2023-04-09T12:31:39.264Z,96321.63
2023-04-09T12:36:42.648Z,96308.16
2023-04-09T12:41:46.651Z,96310.19
2023-04-09T12:46:49.825Z,96307.09
2023-04-09T12:51:52.252Z,96303.97
2023-04-09T12:56:54.654Z,96305.41
2023-04-09T13:01:57.109Z,96308.41
2023-04-09T13:07:00.524Z,96298.19
2023-04-09T13:12:03.636Z,96303.16
2023-04-09T13:17:06.822Z,96304.16
2023-04-09T13:22:09.264Z,96302.69
2023-04-09T13:27:11.778Z,96306.78
2023-04-09T13:32:14.209Z,96307.06
2023-04-09T13:37:16.809Z,96302.13
2023-04-09T13:42:19.224Z,96292.41
2023-04-09T13:47:21.871Z,96287.81
2023-04-09T13:52:26.837Z,96278.31
2023-04-09T13:57:31.918Z,96274.94
2023-04-09T14:02:34.408Z,96275.84
2023-04-09T14:07:37.694Z,96278.47
2023-04-09T14:12:40.070Z,96271.69
2023-04-09T14:17:42.573Z,96271.72
2023-04-09T14:22:49.153Z,96268.38
2023-04-09T14:27:52.141Z,96270.25
2023-04-09T14:32:55.041Z,96266.38
2023-04-09T14:37:58.358Z,96266.59
2023-04-09T14:43:01.156Z,96259.50
2023-04-09T14:48:03.952Z,96261.31
2023-04-09T14:53:06.648Z,96263.56
2023-04-09T14:58:09.821Z,96264.56
2023-04-09T15:03:13.402Z,96263.28
2023-04-09T15:08:15.981Z,96268.63
2023-04-09T15:13:18.777Z,96265.06
2023-04-09T15:18:21.910Z,96259.88
2023-04-09T15:23:24.740Z,96257.91
2023-04-09T15:28:27.910Z,96248.44
2023-04-09T15:33:32.336Z,96256.75
2023-04-09T15:38:34.809Z,96263.00
2023-04-09T15:43:37.228Z,96261.41
2023-04-09T15:48:39.625Z,96260.47
2023-04-09T15:53:42.921Z,96253.16
2023-04-09T15:58:45.352Z,96253.34
2023-04-09T16:03:52.274Z,96250.03
2023-04-09T16:08:55.158Z,96244.88
2023-04-09T16:13:59.034Z,96243.81
2023-04-09T16:19:01.741Z,96252.50
2023-04-09T16:24:04.045Z,96251.44
2023-04-09T16:29:06.736Z,96251.06
2023-04-09T16:34:09.871Z,96255.09
2023-04-09T16:39:12.384Z,96252.59
2023-04-09T16:44:15.426Z,96252.09
2023-04-09T16:49:17.862Z,96252.44
2023-04-09T16:54:20.785Z,96258.78
2023-04-09T16:59:25.711Z,96253.75
2023-04-09T17:04:29.210Z,96258.00
2023-04-09T17:09:32.165Z,96265.84
2023-04-09T17:14:34.897Z,96256.13
2023-04-09T17:19:38.158Z,96260.31
2023-04-09T17:24:40.906Z,96264.88
2023-04-09T17:29:43.239Z,96265.69
2023-04-09T17:34:46.031Z,96265.84
2023-04-09T17:39:49.561Z,96269.63
2023-04-09T17:44:51.953Z,96267.41
2023-04-09T17:50:04.385Z,96278.09
2023-04-09T17:55:07.974Z,96286.00
2023-04-09T18:00:10.421Z,96282.25
2023-04-09T18:05:20.943Z,96295.16
2023-04-09T18:10:25.024Z,96294.03
2023-04-09T18:15:27.461Z,96290.22
2023-04-09T18:20:29.915Z,96289.91
2023-04-09T18:25:32.426Z,96292.09
2023-04-09T18:30:36.183Z,96306.03
2023-04-09T18:35:48.451Z,96311.00
2023-04-09T18:40:51.247Z,96317.75
2023-04-09T18:45:53.813Z,96316.00
2023-04-09T18:50:59.040Z,96326.16
2023-04-09T18:56:01.658Z,96328.91
2023-04-09T19:01:04.803Z,96337.22
2023-04-09T19:06:07.462Z,96339.75
2023-04-09T19:11:10.724Z,96350.56
2023-04-09T19:16:14.277Z,96348.06
2023-04-09T19:21:18.627Z,96356.00
2023-04-09T19:26:22.255Z,96341.94
2023-04-09T19:31:25.442Z,96345.81
2023-04-09T19:36:28.470Z,96347.53
2023-04-09T19:41:31.615Z,96347.25
2023-04-09T19:46:34.665Z,96347.25
2023-04-09T19:51:37.209Z,96354.22
2023-04-09T19:56:39.657Z,96349.44
2023-04-09T20:01:42.223Z,96347.56
2023-04-09T20:06:45.385Z,96352.44
2023-04-09T20:11:47.849Z,96352.56
2023-04-09T20:16:50.283Z,96350.03
2023-04-09T20:21:56.077Z,96346.53
2023-04-09T20:27:00.014Z,96342.56
2023-04-09T20:32:13.380Z,96351.31
2023-04-09T20:37:16.715Z,96337.69
2023-04-09T20:42:19.892Z,96345.41
2023-04-09T20:47:23.072Z,96346.88
2023-04-09T20:52:27.963Z,96341.31
2023-04-09T20:57:30.352Z,96348.59
2023-04-09T21:02:32.841Z,96353.41
2023-04-09T21:07:36.429Z,96348.66
2023-04-09T21:12:38.929Z,96347.47
2023-04-09T21:17:41.549Z,96360.41
2023-04-09T21:22:44.392Z,96355.09
2023-04-09T21:27:49.870Z,96356.34
2023-04-09T21:32:54.530Z,96364.13
2023-04-09T21:37:57.095Z,96353.38
2023-04-09T21:43:05.670Z,96345.63
2023-04-09T21:48:09.668Z,96358.00
2023-04-09T21:53:13.855Z,96360.13
2023-04-09T21:58:17.703Z,96357.03
2023-04-09T22:03:20.362Z,96365.53
2023-04-09T22:08:23.290Z,96368.22
2023-04-09T22:13:25.917Z,96374.25
2023-04-09T22:18:28.691Z,96382.78
2023-04-09T22:23:31.460Z,96389.31
2023-04-09T22:28:33.897Z,96398.72
2023-04-09T22:33:36.565Z,96390.72
2023-04-09T22:38:38.976Z,96390.13
2023-04-09T22:43:41.452Z,96383.63
2023-04-09T22:48:45.153Z,96387.38
2023-04-09T22:53:47.691Z,96381.66
2023-04-09T22:58:49.996Z,96364.75
2023-04-09T23:03:52.390Z,96370.09
2023-04-09T23:08:55.682Z,96363.41
2023-04-09T23:13:58.226Z,96359.72
2023-04-09T23:19:02.364Z,96359.31
2023-04-09T23:24:05.838Z,96360.31
2023-04-09T23:29:08.155Z,96346.25
2023-04-09T23:34:10.675Z,96352.44
2023-04-09T23:39:23.312Z,96357.38
2023-04-09T23:44:25.701Z,96340.63
2023-04-09T23:49:28.962Z,96342.63
2023-04-09T23:54:31.281Z,96338.47
2023-04-09T23:59:35.885Z,96344.50
